Pagrindinis puslapis
METAR-TAF:

METAR-TAF

Oro uostai :

Scampton, Anglija

platuma: 53-18-27N, ilguma: 000-33-03W, Aukštis: 62 m

Dabartinis oras

Ataskaita buvo paskelbta 42 minutes, ne 20:50 UTC
Vėjas 9 kt iš Vakarų/Pietvakarių
Temperatūra 1°C
Drėgmė 93%
Slėgis 1043 hPa
Matomumas: 7000 m

METAR: EGXP 202050Z AUTO 25009KT 7000 // NCD 01/00 Q1043

Laikas: 21:32 (21:32 UTC)

Prognozė

Ataskaita buvo paskelbta 8 valandos ir 8 minutes, ne 13:24 UTC
Prognozė galioja nuo 20 metu 15 UTC su 20 metu 18 UTC
Vėjas 8 kt iš Vakarų/Pietvakarių
Matomumas 10 km arba daugiau
nėra debesų žemiau 1500 m ir nėra kamuolinių lietaus debesų

TAF: EGXP 201324Z 2015/2018 24008KT CAVOK

Orai ataskaitas ir orų prognozės (METAR, TAF).

turimą stotys yra geltonos ir raudonos taškus žemėlapyje.

Perkelti pele per norėdami pamatyti stoties vardą.

Tada spustelėkite, norėdami matyti oro stebėjimo ir prognozės.

Norėdami pakeisti žemėlapį: spustelėkite ant žalios mygtukų su juodo kryžiaus žemyn,; žalią mygtuką su brūkšneliu, jei norite nutolinti; arba žalių rodyklių gretimoms žemėlapius.


METAR-TAF: